Westminster, Colorado
Current Conditions -  °F | °C
As of 12:35 AM on Saturday 25 Oct 2014 (Local Time) from KBJC Reporting Station
Clear Clear  
Wind Chill: 59°   Ceiling: Unl
Heat Index: 59°   Visibility: 10mi
Dew Point: 19°   Wind: 5mph
Humidity: 22%   Direction: 240°WSW
Pressure: 30.22"   Gusts: NA
Location:  39.86°N, 105.04°W
Report Text: KBJC 250635Z AUTO 24004KT 10SM CLR 15/M07 A3022 RMK AO2
Loading
Personal Weather Stations






























Interactive Weather Map
Tropical Storm Tracking
New forecast layout! Learn more

10-Day Weather Forecast

Advertisements
Track Severe Weather on mobile